This is the latest recevied weather packets stored in our database for station/object BG5CNE-12. If no packets are shown the sender has not sent any weather packets the latest 10 day(s).
| Time | Temp. | Humidity | Pressure | Rain* | Wind** | Luminosity | Snow |
|---|---|---|---|---|---|---|---|
| 1777988186 | 18.89° C | 70% | 1018 hPa | 0 mm | - | - | - |
| 1777982186 | 20° C | 61% | 1014 hPa | 0 mm | - | - | - |
| 1777976185 | 22.78° C | 50% | 1016 hPa | 0 mm | - | - | - |
| 1777970184 | 26.11° C | 36% | 1011 hPa | 0 mm | - | - | - |
| 1777964183 | 27.22° C | 30% | 1016 hPa | 0 mm | - | - | - |
| 1777958182 | 27.22° C | 32% | 1017 hPa | 0 mm | - | - | - |
| 1777940180 | 17.78° C | 63% | 1020 hPa | 0 mm | - | - | - |
| 1777934179 | 12.78° C | 86% | 1016 hPa | 0 mm | - | - | - |
| 1777928178 | 12.22° C | 90% | 1015 hPa | 0 mm | - | - | - |
| 1777922177 | 12.78° C | 88% | 1019 hPa | 0 mm | - | - | - |
| 1777916176 | 13.89° C | 82% | 1019 hPa | 0 mm | - | - | - |
| 1777910175 | 15° C | 82% | 1020 hPa | 0 mm | - | - | - |
| 1777898173 | 17.78° C | 73% | 1020 hPa | 0 mm | - | - | - |
| 1777892172 | 20° C | 61% | 1019 hPa | 0 mm | - | - | - |
| 1777886171 | 22.78° C | 38% | 1015 hPa | 0 mm | - | - | - |
| 1777880169 | 23.89° C | 36% | 1018 hPa | 0 mm | - | - | - |
| 1777874169 | 23.89° C | 38% | 1017 hPa | 0 mm | - | - | - |
| 1777868167 | 22.78° C | 36% | 1017 hPa | 0 mm | - | - | - |
| 1777844163 | 15° C | 78% | 1020 hPa | 0 mm | - | - | - |
| 1777832161 | 16.11° C | 79% | 1014 hPa | 0 mm | - | - | - |
| 1777820159 | 20° C | 46% | 1015 hPa | 0 mm | - | - | - |
| 1777814157 | 20° C | 50% | 1015 hPa | 0 mm | - | - | - |
| 1777802154 | 21.11° C | 65% | 1012 hPa | 0 mm | - | - | - |
| 1777796153 | 22.22° C | 62% | 1010 hPa | 0 mm | - | - | - |
| 1777790152 | 21.11° C | 63% | 1009 hPa | 0 mm | - | - | - |
* Rain latest hour (hover to see other rain measurements)
** Current wind speed in m/s (hover to see current wind gust speed)